Time;durP1;ratioP1;P1;durP2;ratioP2;P2;SDS_P1;SDS_P2;PMS_P1;PMS_P2;Temp;Humidity;BMP_temperature;BMP_pressure;BME280_temperature;BME280_humidity;BME280_pressure;Samples;Min_cycle;Max_cycle;Signal;HPM_P1;HPM_P2
2020/12/05 00:01:06;;;;;;;16.37;9.00;;;4.10;99.90;;;3.93;80.20;98917.88;5074857;28;20064;-87
2020/12/05 00:03:33;;;;;;;18.50;9.60;;;4.10;99.90;;;3.86;80.51;98914.44;5076045;28;20498;-89
2020/12/05 00:06:01;;;;;;;12.30;9.87;;;4.00;99.90;;;3.83;80.90;98901.41;5075923;28;20044;-79
2020/12/05 00:08:29;;;;;;;18.00;9.73;;;4.00;99.90;;;4.02;80.90;98950.03;5075761;28;20135;-82
2020/12/05 00:10:56;;;;;;;15.80;10.40;;;4.00;99.90;;;4.01;80.55;98958.75;5074378;28;20505;-82
2020/12/05 00:13:25;;;;;;;17.40;8.87;;;4.00;99.90;;;3.86;81.01;98961.50;5075545;28;20083;-82
2020/12/05 00:15:52;;;;;;;14.63;9.47;;;4.00;99.90;;;3.77;81.08;98938.06;5075121;28;20060;-82
2020/12/05 00:18:20;;;;;;;14.50;10.10;;;4.00;99.90;;;3.72;81.29;98952.06;5075577;28;20086;-81
2020/12/05 00:20:48;;;;;;;13.87;10.00;;;3.80;99.90;;;3.74;82.07;98971.19;5074154;28;20486;-82
2020/12/05 00:23:15;;;;;;;15.57;10.67;;;3.80;99.90;;;3.76;81.99;98967.69;5074807;28;20068;-81
2020/12/05 00:25:45;;;;;;;16.27;10.70;;;3.80;99.90;;;3.84;81.62;98976.34;5075555;28;20428;-81
2020/12/05 00:28:13;;;;;;;18.52;11.00;;;3.80;99.90;;;3.91;81.64;98972.78;5075298;28;20048;-81
2020/12/05 00:30:41;;;;;;;15.07;11.07;;;3.90;99.90;;;3.64;80.96;98907.66;5074063;28;20044;-80
2020/12/05 00:33:08;;;;;;;17.10;10.43;;;4.10;99.90;;;3.93;80.68;98955.31;5090548;28;20041;-82
2020/12/05 00:35:36;;;;;;;17.73;10.93;;;4.10;99.90;;;3.89;81.26;98992.00;5075228;28;20399;-81
2020/12/05 00:38:03;;;;;;;17.53;10.43;;;4.00;99.90;;;3.81;81.29;98988.56;5075256;28;20048;-81
2020/12/05 00:40:31;;;;;;;22.53;11.37;;;3.90;99.90;;;3.71;81.89;98986.91;5074808;28;20536;-80
2020/12/05 00:42:58;;;;;;;18.23;11.50;;;3.80;99.90;;;3.52;81.55;98968.72;5074902;28;20045;-81
2020/12/05 00:45:25;;;;;;;15.43;11.40;;;3.70;99.90;;;3.50;82.19;98991.38;5075000;28;20055;-81
2020/12/05 00:47:56;;;;;;;14.57;10.97;;;3.60;99.90;;;3.59;82.68;99000.91;5090550;28;20041;-81
2020/12/05 00:50:25;;;;;;;18.80;11.33;;;3.60;99.90;;;3.53;82.35;98980.94;5073690;28;20094;-81
2020/12/05 00:52:53;;;;;;;16.73;11.33;;;3.70;99.90;;;2.99;82.40;98904.66;5090482;28;20375;-81
2020/12/05 00:55:22;;;;;;;13.50;10.63;;;3.70;99.90;;;3.70;82.49;99009.53;5090361;28;20094;-81
2020/12/05 00:57:49;;;;;;;17.17;11.10;;;3.70;99.90;;;3.74;82.78;99005.16;5074941;28;20042;-81
2020/12/05 01:00:18;;;;;;;17.93;11.70;;;3.70;99.90;;;3.81;82.08;99018.19;5074794;28;20401;-82
2020/12/05 01:02:46;;;;;;;16.30;10.97;;;3.80;99.90;;;3.88;81.75;99019.88;5073395;28;20079;-81
2020/12/05 01:05:16;;;;;;;18.03;11.47;;;3.80;99.90;;;3.85;82.17;99017.31;5074743;28;20044;-81
2020/12/05 01:07:43;;;;;;;18.27;11.93;;;3.90;99.90;;;3.84;82.01;99023.41;5074193;28;20052;-80
2020/12/05 01:10:10;;;;;;;17.87;11.33;;;3.90;99.90;;;3.61;81.77;98993.94;5074178;28;20040;-80
2020/12/05 01:12:38;;;;;;;17.30;12.03;;;3.80;99.90;;;3.79;82.35;99040.88;5073362;28;20505;-80
2020/12/05 01:15:07;;;;;;;18.77;12.53;;;3.80;99.90;;;2.87;82.28;98897.78;5074167;28;20078;-81
2020/12/05 01:17:35;;;;;;;21.20;12.00;;;3.70;99.90;;;3.57;82.90;99024.47;5090069;28;20548;-81
2020/12/05 01:20:05;;;;;;;20.23;11.60;;;3.70;99.90;;;3.72;82.95;99054.84;5074416;28;20043;-81
2020/12/05 01:22:33;;;;;;;18.70;11.27;;;3.70;99.90;;;3.65;82.90;99061.00;5074117;28;20063;-81
2020/12/05 01:25:01;;;;;;;14.20;11.23;;;3.70;99.90;;;3.43;82.88;99021.06;5074645;28;20037;-80
2020/12/05 01:27:28;;;;;;;18.43;11.40;;;3.70;99.90;;;3.59;82.01;99042.75;5072954;28;20493;-81
2020/12/05 01:29:56;;;;;;;20.00;12.17;;;3.70;99.90;;;3.65;82.50;99043.56;5072973;28;20070;-80
2020/12/05 01:32:23;;;;;;;16.73;11.83;;;3.80;99.90;;;3.67;82.30;99040.94;5073813;28;20486;-81
2020/12/05 01:34:51;;;;;;;16.10;10.73;;;3.80;99.90;;;3.64;81.92;99054.88;5073291;28;20037;-80
2020/12/05 01:37:18;;;;;;;18.60;11.60;;;3.80;99.90;;;3.86;81.76;99073.94;5073816;28;20093;-80
2020/12/05 01:39:46;;;;;;;17.37;10.73;;;3.80;99.90;;;3.68;82.14;99042.66;5074032;28;20094;-80
2020/12/05 01:42:14;;;;;;;17.43;11.07;;;3.90;99.90;;;3.82;82.30;99077.44;5072823;28;20049;-81
2020/12/05 01:44:42;;;;;;;18.40;11.27;;;3.90;99.90;;;3.83;82.53;99094.88;5073515;28;20127;-80
2020/12/05 01:47:10;;;;;;;15.90;11.27;;;3.80;99.90;;;3.80;82.45;99086.16;5073635;28;20391;-81
2020/12/05 01:49:38;;;;;;;16.23;11.23;;;3.90;99.90;;;3.80;82.63;99094.00;5072568;28;20094;-81
2020/12/05 01:52:05;;;;;;;17.43;11.17;;;3.80;99.90;;;3.69;83.00;99101.94;5073456;28;20127;-82
2020/12/05 01:54:33;;;;;;;15.00;10.37;;;3.70;99.90;;;3.75;83.55;99107.13;5073474;28;20398;-81
2020/12/05 01:57:04;;;;;;;16.40;11.90;;;3.70;99.90;;;3.64;82.85;99088.00;5073727;28;20075;-81
2020/12/05 01:59:32;;;;;;;;;;;3.80;99.90;;;3.95;83.07;99115.69;5074135;28;20062;-80
2020/12/05 02:02:02;;;;;;;15.20;10.77;;;3.90;99.90;;;4.08;82.84;99106.91;5073309;28;20408;-81
2020/12/05 02:04:31;;;;;;;13.93;10.52;;;4.00;99.90;;;4.19;82.08;99115.53;5073364;28;20049;-81
2020/12/05 02:07:27;;;;;;;14.02;10.77;;;4.10;99.90;;;4.16;81.38;99114.69;5073887;28;20045;-81
2020/12/05 02:09:58;;;;;;;14.73;11.57;;;4.10;99.90;;;4.01;81.72;99118.28;5073521;28;20127;-81
2020/12/05 02:12:30;;;;;;;;;;;4.00;99.90;;;3.83;82.34;99115.78;5072483;28;20044;-81
2020/12/05 02:15:07;;;;;;;16.53;10.77;;;3.90;99.90;;;3.71;83.30;99118.47;5073473;28;19930;-81
2020/12/05 02:17:38;;;;;;;17.83;11.10;;;3.80;99.90;;;3.77;83.26;99117.56;5071700;28;20502;-81
2020/12/05 02:20:07;;;;;;;13.93;9.97;;;3.70;99.90;;;1.54;83.90;98754.09;5073092;28;20045;-81
2020/12/05 02:22:41;;;;;;;15.83;11.47;;;3.70;99.90;;;3.62;84.55;99113.28;5073048;28;20478;-80
2020/12/05 02:25:11;;;;;;;18.33;11.10;;;3.60;99.90;;;3.48;84.22;99081.13;5073458;28;20291;-80
2020/12/05 02:27:42;;;;;;;20.20;11.45;;;3.70;99.90;;;3.76;84.47;99116.69;5073300;28;20055;-80
2020/12/05 02:30:10;;;;;;;;;;;3.70;99.90;;;3.75;84.05;99112.34;5073632;28;20417;-81
2020/12/05 02:32:37;;;;;;;17.23;10.93;;;3.70;99.90;;;3.73;84.29;99098.41;5072836;28;20018;-81
2020/12/05 02:35:06;;;;;;;15.30;11.27;;;3.80;99.90;;;3.77;84.07;99109.72;5072862;28;20045;-80
2020/12/05 02:37:41;;;;;;;15.50;11.03;;;3.70;99.90;;;3.81;84.51;99108.81;5072859;28;20510;-81
2020/12/05 02:40:11;;;;;;;14.40;10.27;;;3.80;99.90;;;3.72;84.28;99127.19;5071916;28;20049;-80
2020/12/05 02:42:38;;;;;;;14.90;10.60;;;3.80;99.90;;;3.74;84.32;99105.38;5071970;28;20052;-81
2020/12/05 02:45:10;;;;;;;18.60;11.03;;;3.70;99.90;;;3.77;83.99;99089.69;5072639;28;20116;-81
2020/12/05 02:47:38;;;;;;;13.70;10.30;;;3.80;99.90;;;3.93;84.09;99095.69;5073073;28;20040;-78
2020/12/05 02:50:06;;;;;;;18.50;11.10;;;3.90;99.90;;;4.00;82.89;99087.78;5072995;28;20440;-81
2020/12/05 02:52:34;;;;;;;13.77;10.10;;;4.00;99.90;;;4.09;82.85;99090.31;5071341;28;20048;-81
2020/12/05 02:55:01;;;;;;;14.93;10.90;;;4.10;99.90;;;4.10;82.65;99094.69;5071668;28;20132;-80
2020/12/05 02:57:29;;;;;;;20.90;10.87;;;4.10;99.90;;;4.19;82.16;99068.44;5072731;28;20048;-80
2020/12/05 02:59:57;;;;;;;18.37;10.67;;;4.30;99.90;;;4.45;81.73;99097.03;5071586;28;20037;-80
2020/12/05 03:02:25;;;;;;;15.20;10.20;;;4.40;99.90;;;4.54;80.80;99103.03;5072792;28;20098;-81
2020/12/05 03:04:52;;;;;;;16.53;10.77;;;4.50;99.90;;;4.52;81.03;99107.44;5071218;28;20045;-80
2020/12/05 03:07:20;;;;;;;16.87;10.50;;;4.50;99.90;;;4.61;80.86;99109.06;5072785;28;20057;-81
2020/12/05 03:09:47;;;;;;;13.97;10.43;;;4.50;99.90;;;4.63;79.99;99102.06;5072833;28;20083;-80
2020/12/05 03:12:14;;;;;;;17.33;10.87;;;4.60;99.90;;;4.51;79.80;99107.41;5072262;28;20037;-81
2020/12/05 03:14:43;;;;;;;15.43;10.37;;;4.50;99.90;;;4.16;80.72;99099.84;5072712;28;20115;-81
2020/12/05 03:17:10;;;;;;;15.17;11.13;;;4.20;99.90;;;3.75;82.32;99096.66;5072213;28;20057;-81
2020/12/05 03:19:38;;;;;;;15.27;11.43;;;3.90;99.90;;;3.62;82.99;99105.44;5071433;28;20585;-80
2020/12/05 03:22:05;;;;;;;19.13;11.47;;;3.70;99.90;;;3.55;83.83;99106.34;5072661;28;20036;-81
2020/12/05 03:24:32;;;;;;;12.93;9.80;;;3.60;99.90;;;3.61;84.45;99112.44;5072549;28;20075;-80
2020/12/05 03:27:00;;;;;;;18.70;11.93;;;3.60;99.90;;;3.49;84.58;99112.47;5072300;28;20040;-81
2020/12/05 03:29:28;;;;;;;18.27;10.80;;;3.50;99.90;;;3.47;84.44;99108.13;5072768;28;20032;-81
2020/12/05 03:31:59;;;;;;;16.40;10.83;;;3.40;99.90;;;3.39;84.95;99102.06;5072293;28;20067;-81
2020/12/05 03:34:27;;;;;;;17.00;11.07;;;3.40;99.90;;;3.37;85.00;99109.03;5072513;28;20044;-81
2020/12/05 03:36:56;;;;;;;17.27;11.67;;;3.40;99.90;;;3.29;85.05;99100.38;5072574;28;20072;-81
2020/12/05 03:39:23;;;;;;;15.57;11.37;;;3.40;99.90;;;3.32;85.21;99121.25;5072221;28;20436;-81
2020/12/05 03:41:50;;;;;;;15.47;12.63;;;3.30;99.90;;;3.23;85.18;99123.91;5072179;28;20477;-81
2020/12/05 03:44:18;;;;;;;16.53;11.87;;;3.20;99.90;;;2.46;85.66;99014.47;5072132;28;20044;-81
2020/12/05 03:46:46;;;;;;;16.47;11.60;;;3.20;99.90;;;3.34;85.30;99122.13;5072407;28;20037;-81
2020/12/05 03:49:15;;;;;;;16.43;11.37;;;3.30;99.90;;;3.38;85.46;99127.34;5072421;28;20046;-81
2020/12/05 03:51:42;;;;;;;17.53;12.33;;;3.40;99.90;;;3.41;85.65;99131.66;5072333;28;20143;-81
2020/12/05 03:54:09;;;;;;;18.43;11.57;;;3.40;99.90;;;3.49;85.11;99129.88;5072290;28;20071;-81
2020/12/05 03:56:37;;;;;;;12.47;11.07;;;3.40;99.90;;;3.55;84.73;99119.41;5073091;28;20040;-81
2020/12/05 03:59:04;;;;;;;16.47;11.10;;;3.60;99.90;;;3.44;84.61;99123.84;5075951;28;20086;-81
2020/12/05 04:01:32;;;;;;;13.17;10.97;;;3.50;99.90;;;3.44;84.65;99127.31;5076149;28;20447;-81
2020/12/05 04:03:59;;;;;;;17.60;12.00;;;3.50;99.90;;;3.50;84.80;99124.66;5075572;28;20119;-81
2020/12/05 04:06:27;;;;;;;17.13;11.47;;;3.50;99.90;;;3.58;84.82;99119.41;5074468;28;20555;-80
2020/12/05 04:08:55;;;;;;;18.73;12.47;;;3.60;99.90;;;3.42;84.50;99089.88;5075740;28;20368;-81
2020/12/05 04:11:22;;;;;;;14.07;10.47;;;3.60;99.90;;;3.64;84.66;99124.59;5075676;28;20056;-81
2020/12/05 04:13:49;;;;;;;13.87;10.47;;;3.60;99.90;;;3.79;83.97;99124.53;5075346;28;20478;-81
2020/12/05 04:16:17;;;;;;;16.43;11.60;;;3.70;99.90;;;3.92;83.46;99127.94;5075154;28;20106;-80
2020/12/05 04:18:44;;;;;;;13.30;10.40;;;3.90;99.90;;;3.94;83.21;99124.44;5075591;28;20098;-81
2020/12/05 04:21:11;;;;;;;14.00;10.87;;;3.90;99.90;;;3.90;83.28;99120.09;5075341;28;20037;-81
2020/12/05 04:23:40;;;;;;;16.87;11.57;;;3.90;99.90;;;3.93;83.17;99114.84;5075208;28;20055;-80
2020/12/05 04:26:09;;;;;;;18.60;11.17;;;4.00;99.90;;;4.21;82.49;99129.47;5075500;28;20155;-81
2020/12/05 04:28:36;;;;;;;14.07;11.23;;;4.20;99.90;;;4.29;81.92;99129.41;5075452;28;20045;-81
2020/12/05 04:31:04;;;;;;;18.70;10.40;;;4.30;99.90;;;4.20;81.38;99129.50;5075412;28;20049;-81
2020/12/05 04:33:31;;;;;;;14.60;9.67;;;4.20;99.90;;;4.25;82.19;99135.56;5073997;28;20048;-81
2020/12/05 04:35:59;;;;;;;15.20;10.83;;;4.20;99.90;;;4.20;81.76;99126.88;5075290;28;20117;-81
2020/12/05 04:38:28;;;;;;;13.40;9.77;;;4.20;99.90;;;4.25;81.37;99132.94;5075035;28;20128;-81
2020/12/05 04:40:58;;;;;;;13.10;10.25;;;4.20;99.90;;;4.29;81.70;99137.28;5075100;28;20037;-81
2020/12/05 04:43:26;;;;;;;16.73;10.57;;;4.30;99.90;;;4.17;81.53;99124.28;5073625;28;20037;-81
2020/12/05 04:45:55;;;;;;;14.37;10.43;;;4.30;99.90;;;4.05;81.38;99121.72;5073933;28;20134;-80
2020/12/05 04:48:22;;;;;;;15.63;10.73;;;4.20;99.90;;;4.04;81.92;99133.97;5074829;28;20512;-81
2020/12/05 04:50:51;;;;;;;15.90;11.00;;;4.10;99.90;;;3.95;82.70;99141.00;5074692;28;20101;-80
2020/12/05 04:53:21;;;;;;;16.50;11.07;;;4.00;99.90;;;3.57;82.27;99084.56;5074634;28;20040;-81
2020/12/05 04:55:49;;;;;;;12.80;10.60;;;3.90;99.90;;;3.11;83.13;99063.88;5074984;28;20094;-81
2020/12/05 04:58:19;;;;;;;15.07;10.23;;;3.70;99.90;;;3.77;82.79;99147.19;5074907;28;20547;-81
2020/12/05 05:00:52;;;;;;;15.07;10.27;;;3.70;99.90;;;3.87;82.96;99154.09;5090532;28;20429;-81
2020/12/05 05:03:22;;;;;;;15.93;9.77;;;3.80;99.90;;;3.90;82.64;99140.13;5074887;28;20485;-80
2020/12/05 05:05:52;;;;;;;15.75;9.52;;;3.90;99.90;;;3.74;82.51;99146.31;5074531;28;20417;-81
2020/12/05 05:08:20;;;;;;;11.63;10.00;;;3.80;99.90;;;3.69;83.34;99143.75;5073492;28;20405;-80
2020/12/05 05:10:47;;;;;;;15.23;10.37;;;3.80;99.90;;;3.99;82.53;99140.94;5073247;28;20144;-80
2020/12/05 05:13:17;;;;;;;16.17;10.73;;;4.00;99.90;;;3.97;82.17;99113.94;5074225;28;20047;-81
2020/12/05 05:15:46;;;;;;;16.93;11.10;;;4.10;99.90;;;4.07;82.01;99136.53;5074322;28;20106;-81
2020/12/05 05:18:15;;;;;;;14.63;10.90;;;4.10;99.90;;;4.08;82.00;99101.69;5074487;28;20551;-80
2020/12/05 05:20:44;;;;;;;14.00;10.63;;;4.30;99.90;;;4.32;81.14;99135.50;5074556;28;20036;-80
2020/12/05 05:23:18;;;;;;;14.83;10.97;;;4.40;99.90;;;4.35;81.22;99142.47;5074560;28;20044;-81
2020/12/05 05:25:57;;;;;;;13.83;10.83;;;4.30;99.90;;;4.22;80.69;99162.59;5074514;28;20048;-81
2020/12/05 05:28:28;;;;;;;14.70;10.17;;;4.30;99.90;;;4.45;80.65;99171.16;5074170;28;20513;-80
2020/12/05 05:31:14;;;;;;;19.43;10.23;;;4.40;99.90;;;4.07;80.54;99165.31;5074312;28;20044;-80
2020/12/05 05:33:44;;;;;;;16.73;10.30;;;4.30;99.90;;;4.10;80.39;99182.75;5073731;28;20037;-81
2020/12/05 05:36:20;;;;;;;;;;;4.20;99.90;;;3.84;79.98;99156.72;5074514;28;20041;-80
2020/12/05 05:39:01;;;;;;;11.00;9.23;;;4.10;99.90;;;3.92;80.63;99185.44;5074108;28;19925;-80
2020/12/05 05:41:28;;;;;;;10.43;8.93;;;3.90;99.90;;;3.75;81.24;99188.16;5073811;28;20060;-80
2020/12/05 05:44:04;;;;;;;12.37;9.87;;;3.80;99.90;;;3.90;81.13;99195.06;5073748;28;20044;-81
2020/12/05 05:46:35;;;;;;;11.45;9.30;;;3.80;99.90;;;3.74;81.57;99189.03;5073970;28;20044;-81
2020/12/05 05:49:04;;;;;;;14.75;9.95;;;3.80;99.90;;;3.71;82.67;99209.97;5072639;28;20049;-81
2020/12/05 05:51:43;;;;;;;11.13;9.77;;;3.70;99.90;;;3.74;83.14;99209.06;5073849;28;20036;-81
2020/12/05 05:54:20;;;;;;;13.90;9.73;;;3.70;99.90;;;3.44;83.04;99163.03;5073940;28;20032;-81
2020/12/05 05:57:05;;;;;;;15.03;9.70;;;3.70;99.90;;;3.42;84.14;99175.22;5073943;28;20372;-81
2020/12/05 05:59:35;;;;;;;12.00;10.57;;;3.60;99.90;;;3.63;83.96;99219.56;5073849;28;20040;-81
2020/12/05 06:02:05;;;;;;;13.40;8.90;;;3.60;99.90;;;3.58;84.42;99214.34;5073355;28;20041;-81
2020/12/05 06:04:35;;;;;;;15.45;9.57;;;3.60;99.90;;;3.42;84.14;99170.88;5074031;28;20597;-80
2020/12/05 06:07:06;;;;;;;12.43;9.70;;;3.70;99.90;;;3.70;84.91;99226.50;5073430;28;20045;-80
2020/12/05 06:09:47;;;;;;;18.92;9.98;;;3.70;99.90;;;3.65;84.52;99230.88;5089242;28;20106;-81
2020/12/05 06:12:19;;;;;;;12.80;9.93;;;3.60;99.90;;;3.71;83.89;99230.88;5073467;28;20033;-81
2020/12/05 06:14:48;;;;;;;13.60;10.10;;;3.70;99.90;;;3.70;84.08;99218.66;5073437;28;20028;-80
2020/12/05 06:17:19;;;;;;;12.87;9.83;;;3.80;99.90;;;3.84;83.63;99234.28;5073410;28;20067;-81
2020/12/05 06:19:47;;;;;;;;;;;3.80;99.90;;;4.09;83.25;99236.81;5073230;28;20418;-80
2020/12/05 06:22:24;;;;;;;12.37;10.60;;;4.00;99.90;;;4.30;82.74;99244.53;5073340;28;19951;-80
2020/12/05 06:24:59;;;;;;;12.57;10.30;;;4.20;99.90;;;4.49;81.73;99233.06;5072067;28;20102;-80
2020/12/05 06:27:27;;;;;;;12.80;10.60;;;4.40;99.90;;;3.86;81.11;99117.50;5073308;28;20045;-80
2020/12/05 06:29:57;;;;;;;13.23;11.03;;;4.50;99.90;;;4.69;80.58;99259.13;5073245;28;20037;-81
2020/12/05 06:32:46;;;;;;;12.53;10.40;;;4.70;99.90;;;4.63;80.60;99245.22;5072876;28;20509;-81
2020/12/05 06:35:34;;;;;;;15.67;10.33;;;4.60;99.90;;;4.44;80.60;99237.47;5073294;28;20041;-81
2020/12/05 06:38:03;;;;;;;16.03;10.17;;;4.40;99.90;;;4.37;81.29;99250.59;5072855;28;20048;-81
2020/12/05 06:40:40;;;;;;;15.87;11.10;;;4.30;99.90;;;4.41;80.92;99262.81;5073006;28;20064;-81
2020/12/05 06:43:13;;;;;;;15.37;11.67;;;4.40;99.90;;;4.31;81.11;99258.50;5073163;28;20082;-79
2020/12/05 06:45:43;;;;;;;13.93;11.07;;;4.30;99.90;;;4.30;80.88;99268.09;5071728;28;20052;-81
2020/12/05 06:48:33;;;;;;;16.17;10.93;;;4.30;99.90;;;4.17;81.23;99276.00;5072979;28;20402;-81
2020/12/05 06:51:01;;;;;;;15.20;12.02;;;4.20;99.90;;;3.52;81.14;99163.88;5073190;28;20041;-81
2020/12/05 06:53:32;;;;;;;14.20;11.60;;;4.20;99.90;;;4.17;81.43;99281.22;5072898;28;20040;-81
2020/12/05 06:56:04;;;;;;;13.13;11.13;;;4.30;99.90;;;3.53;82.13;99189.09;5072797;28;20102;-80
2020/12/05 06:58:33;;;;;;;14.67;11.57;;;4.20;99.90;;;4.09;81.75;99291.72;5072532;28;20048;-81
2020/12/05 07:01:02;;;;;;;18.17;12.25;;;4.10;99.90;;;4.04;82.41;99283.03;5072809;28;20400;-81
2020/12/05 07:03:31;;;;;;;16.77;12.90;;;4.10;99.90;;;4.08;82.60;99289.13;5072661;28;20589;-81
2020/12/05 07:06:00;;;;;;;17.10;11.60;;;4.10;99.90;;;4.15;82.10;99290.81;5073111;28;20489;-82
2020/12/05 07:08:34;;;;;;;15.87;13.00;;;4.10;99.90;;;4.12;82.81;99294.31;5071537;28;20060;-80
2020/12/05 07:11:07;;;;;;;14.93;12.40;;;4.20;99.90;;;4.07;82.57;99309.19;5072738;28;20083;-80
2020/12/05 07:13:42;;;;;;;17.13;13.65;;;4.10;99.90;;;4.05;82.90;99308.31;5072486;28;20044;-79
2020/12/05 07:16:15;;;;;;;20.13;13.90;;;4.20;99.90;;;3.98;83.41;99311.84;5072741;28;20056;-81
2020/12/05 07:18:44;;;;;;;15.80;14.10;;;4.10;99.90;;;3.93;83.35;99310.13;5072709;28;20478;-80
2020/12/05 07:21:13;;;;;;;17.03;13.63;;;4.10;99.90;;;3.85;83.57;99323.22;5072404;28;20040;-80
2020/12/05 07:23:40;;;;;;;18.77;14.63;;;4.00;99.90;;;3.82;83.73;99320.59;5072636;28;20080;-81
2020/12/05 07:26:08;;;;;;;19.43;14.70;;;4.00;99.90;;;3.86;83.89;99324.94;5072377;28;20094;-81
2020/12/05 07:28:36;;;;;;;18.00;14.23;;;4.00;99.90;;;3.80;84.43;99330.19;5072333;28;20494;-81
2020/12/05 07:31:04;;;;;;;19.87;15.47;;;3.90;99.90;;;3.88;84.53;99325.81;5072652;28;20508;-81
2020/12/05 07:33:35;;;;;;;17.13;14.40;;;4.00;99.90;;;3.88;84.77;99333.66;5076282;28;20041;-80
2020/12/05 07:36:06;;;;;;;23.60;15.10;;;4.00;99.90;;;3.83;84.65;99348.50;5076415;28;20383;-80
2020/12/05 07:38:37;;;;;;;18.27;14.90;;;4.00;99.90;;;3.85;85.23;99344.13;5075154;28;20102;-80
2020/12/05 07:41:12;;;;;;;22.45;16.20;;;4.00;99.90;;;3.96;85.58;99362.38;5076263;28;20140;-80
2020/12/05 07:43:40;;;;;;;22.03;16.67;;;4.10;99.90;;;3.99;85.51;99347.56;5076253;28;20045;-80
2020/12/05 07:46:09;;;;;;;25.37;16.87;;;4.20;99.90;;;4.19;85.01;99377.16;5075931;28;20457;-80
2020/12/05 07:48:38;;;;;;;20.37;16.60;;;4.30;99.90;;;4.19;85.34;99355.34;5074875;28;20486;-81
2020/12/05 07:51:12;;;;;;;20.43;16.17;;;4.40;99.90;;;3.81;84.93;99297.06;5075811;28;20036;-81
2020/12/05 07:53:42;;;;;;;20.17;15.80;;;4.50;99.90;;;4.23;84.88;99344.88;5074801;28;20049;-80
2020/12/05 07:56:19;;;;;;;22.40;15.43;;;4.60;99.90;;;4.63;84.81;99386.59;5076159;28;20036;-80
2020/12/05 07:58:50;;;;;;;20.80;15.97;;;4.70;99.90;;;4.67;84.71;99380.44;5075783;28;20063;-80
2020/12/05 08:01:38;;;;;;;20.00;15.53;;;4.80;99.90;;;5.07;83.94;99400.31;5075750;28;20406;-81
2020/12/05 08:04:36;;;;;;;21.17;15.27;;;5.00;99.90;;;4.52;83.12;99285.41;5075753;28;20040;-81
2020/12/05 08:07:06;;;;;;;18.03;14.47;;;5.30;99.90;;;5.25;82.65;99413.28;5076294;28;20040;-79
2020/12/05 08:09:37;;;;;;;20.67;14.73;;;5.40;99.90;;;5.36;82.55;99416.72;5075696;28;20044;-80
2020/12/05 08:12:11;;;;;;;17.77;14.13;;;5.40;99.90;;;5.17;82.31;99417.69;5074342;28;20044;-81
2020/12/05 08:14:43;;;;;;;21.57;14.50;;;5.30;99.90;;;5.35;82.66;99438.53;5075640;28;20051;-82
2020/12/05 08:17:12;;;;;;;17.97;14.27;;;5.40;99.90;;;5.38;82.35;99430.69;5075752;28;20405;-81
2020/12/05 08:19:42;;;;;;;15.60;13.70;;;5.40;99.90;;;5.53;82.19;99434.03;5075607;28;20155;-81
2020/12/05 08:22:09;;;;;;;19.27;15.23;;;5.50;99.90;;;5.75;81.95;99445.22;5075380;28;20067;-81
2020/12/05 08:24:51;;;;;;;20.33;14.13;;;5.70;99.90;;;6.03;81.25;99438.91;5074766;28;20071;-81
2020/12/05 08:27:20;;;;;;;17.10;13.70;;;6.00;99.90;;;5.19;80.06;99240.34;5075535;28;20048;-82
2020/12/05 08:29:49;;;;;;;15.33;12.43;;;6.30;99.90;;;6.68;79.06;99450.47;5075143;28;20098;-82
2020/12/05 08:32:18;;;;;;;14.87;13.07;;;6.60;99.90;;;6.88;78.15;99458.97;5075088;28;20045;-76
2020/12/05 08:34:45;;;;;;;14.63;11.53;;;6.90;99.90;;;7.02;77.22;99441.28;5074986;28;20383;-78
2020/12/05 08:37:19;;;;;;;16.85;11.15;;;7.10;99.90;;;7.49;76.48;99465.13;5075022;28;20032;-77
2020/12/05 08:39:48;;;;;;;13.48;10.43;;;7.40;99.90;;;7.63;74.75;99460.53;5074990;28;20051;-76
2020/12/05 08:42:16;;;;;;;13.75;10.50;;;7.60;99.90;;;7.43;73.49;99441.59;5074348;28;20064;-73
2020/12/05 08:44:43;;;;;;;13.77;10.85;;;7.70;99.90;;;7.84;73.15;99475.16;5075149;28;20040;-80
2020/12/05 08:47:11;;;;;;;12.70;10.10;;;7.80;99.90;;;7.71;73.35;99463.94;5074666;28;20068;-78
2020/12/05 08:49:43;;;;;;;12.45;10.07;;;7.70;99.90;;;8.08;72.80;99475.59;5074707;28;20051;-78
2020/12/05 08:52:12;;;;;;;12.35;9.85;;;8.00;99.90;;;8.27;71.45;99481.44;5074878;28;20486;-80
2020/12/05 08:54:47;;;;;;;12.73;9.68;;;8.20;99.90;;;8.32;70.40;99445.38;5075022;28;20033;-75
2020/12/05 08:57:16;;;;;;;10.18;8.82;;;8.40;99.90;;;8.88;69.33;99483.81;5074648;28;20041;-73
2020/12/05 08:59:44;;;;;;;10.90;9.18;;;8.80;99.90;;;9.25;68.69;99476.91;5074505;28;20040;-72
2020/12/05 09:02:15;;;;;;;11.15;9.57;;;9.10;99.90;;;9.43;67.37;99487.03;5074535;28;20070;-73
2020/12/05 09:04:48;;;;;;;11.13;9.13;;;9.50;99.90;;;9.98;66.15;99481.34;5075052;28;20043;-74
2020/12/05 09:07:17;;;;;;;12.88;9.13;;;9.90;99.90;;;10.08;63.62;99479.34;5074717;28;20047;-72
2020/12/05 09:09:48;;;;;;;12.40;8.38;;;10.10;99.90;;;10.27;63.65;99483.28;5074670;28;20045;-73
2020/12/05 09:12:19;;;;;;;10.00;8.70;;;10.30;99.90;;;10.44;62.79;99475.78;5072960;28;20052;-74
2020/12/05 09:14:47;;;;;;;10.50;8.70;;;10.50;99.90;;;10.81;61.49;99497.69;5074090;28;20147;-74
2020/12/05 09:17:23;;;;;;;12.50;8.18;;;10.70;99.90;;;11.03;60.14;99501.50;5074435;28;20053;-74
2020/12/05 09:19:52;;;;;;;9.85;8.43;;;11.00;99.90;;;11.15;59.94;99495.81;5074238;28;20064;-73
2020/12/05 09:22:37;;;;;;;11.88;8.82;;;11.10;99.90;;;11.33;58.87;99462.66;5074141;28;20048;-75
2020/12/05 09:25:06;;;;;;;10.45;7.70;;;11.50;99.90;;;11.09;57.75;99370.81;5074667;28;20074;-75
2020/12/05 09:27:36;;;;;;;9.40;8.20;;;11.70;99.90;;;11.79;56.91;99500.97;5074054;28;20044;-73
2020/12/05 09:30:10;;;;;;;8.50;7.35;;;11.80;99.90;;;11.89;56.89;99501.53;5074242;28;20040;-74
2020/12/05 09:32:39;;;;;;;11.27;7.88;;;11.80;99.90;;;10.12;56.59;99191.34;5072801;28;20076;-75
2020/12/05 09:35:08;;;;;;;8.25;7.00;;;11.80;99.90;;;12.13;55.28;99514.03;5073796;28;20450;-74
2020/12/05 09:37:36;;;;;;;12.73;8.07;;;12.00;99.90;;;12.25;55.95;99500.34;5074394;28;20072;-72
2020/12/05 09:40:05;;;;;;;9.18;6.90;;;12.20;99.90;;;12.43;55.85;99493.56;5073832;28;20040;-74
2020/12/05 09:42:33;;;;;;;12.85;7.25;;;12.40;99.90;;;12.04;54.40;99526.69;5074183;28;20041;-72
2020/12/05 09:45:00;;;;;;;9.48;7.40;;;12.20;99.90;;;12.07;55.59;99518.63;5073674;28;20075;-79
2020/12/05 09:47:28;;;;;;;8.15;7.35;;;12.00;99.90;;;12.09;55.50;99524.75;5072584;28;20052;-85
2020/12/05 09:49:58;;;;;;;7.60;6.88;;;12.00;99.90;;;12.21;54.90;99534.97;5073606;28;20048;-85
2020/12/05 09:52:25;;;;;;;13.05;6.82;;;12.20;99.90;;;11.70;55.26;99535.69;5073722;28;20037;-85
2020/12/05 09:54:53;;;;;;;11.25;7.38;;;11.80;99.90;;;11.53;55.31;99529.13;5088881;28;20041;-84
2020/12/05 09:57:22;;;;;;;10.75;7.20;;;11.60;99.90;;;11.61;57.07;99538.56;5073686;28;20044;-85
2020/12/05 09:59:49;;;;;;;8.73;6.60;;;11.60;99.90;;;12.09;56.71;99540.66;5074119;28;20043;-84
2020/12/05 10:02:17;;;;;;;10.57;7.60;;;11.90;99.90;;;12.17;55.29;99534.22;5073700;28;20052;-84
2020/12/05 10:04:44;;;;;;;8.50;7.60;;;12.10;99.90;;;11.74;55.86;99540.00;5073434;28;20079;-83
2020/12/05 10:07:12;;;;;;;10.85;7.80;;;11.80;99.90;;;11.60;56.72;99517.44;5074206;28;20090;-84
2020/12/05 10:09:39;;;;;;;9.52;7.65;;;11.60;99.90;;;11.33;55.93;99542.06;5074667;28;20127;-84
2020/12/05 10:12:07;;;;;;;11.02;8.10;;;11.40;99.90;;;10.70;57.20;99529.69;5075648;28;20063;-84
2020/12/05 10:14:35;;;;;;;10.20;8.38;;;10.80;99.90;;;10.70;58.31;99550.00;5074305;28;20043;-83
2020/12/05 10:17:02;;;;;;;8.13;7.32;;;10.70;99.90;;;10.79;58.15;99537.41;5074188;28;20048;-83
2020/12/05 10:19:30;;;;;;;9.95;7.93;;;10.70;99.90;;;10.16;58.48;99515.28;5075693;28;20052;-83
2020/12/05 10:21:57;;;;;;;11.73;7.35;;;10.60;99.90;;;10.13;60.28;99506.53;5075821;28;20095;-84
2020/12/05 10:24:25;;;;;;;8.48;7.47;;;10.20;99.90;;;10.10;59.82;99549.78;5073499;28;20044;-84
2020/12/05 10:26:54;;;;;;;9.02;7.50;;;10.20;99.90;;;10.42;60.26;99528.69;5073298;28;20059;-83
2020/12/05 10:29:22;;;;;;;10.63;8.32;;;10.30;99.90;;;10.35;58.83;99532.41;5073235;28;20414;-83
2020/12/05 10:31:53;;;;;;;11.50;7.95;;;10.30;99.90;;;9.93;60.70;99551.88;5073138;28;20036;-83